createdAt,value
2019-05-10T00:00:51.050Z,0.50
2019-05-10T00:03:38.719Z,0.50
2019-05-10T00:06:26.301Z,0.40
2019-05-10T00:08:56.099Z,0.40
2019-05-10T00:11:30.246Z,0.60
2019-05-10T00:14:01.325Z,0.63
2019-05-10T00:16:30.930Z,0.50
2019-05-10T00:19:00.479Z,0.50
2019-05-10T00:21:30.006Z,0.40
2019-05-10T00:24:00.060Z,0.60
2019-05-10T00:26:29.496Z,0.50
2019-05-10T00:28:59.054Z,0.60
2019-05-10T00:31:28.558Z,0.87
2019-05-10T00:33:58.122Z,0.87
2019-05-10T00:36:27.569Z,0.50
2019-05-10T00:38:57.194Z,0.40
2019-05-10T00:41:26.666Z,0.50
2019-05-10T00:43:56.257Z,0.30
2019-05-10T00:46:25.688Z,0.60
2019-05-10T00:48:55.268Z,0.60
2019-05-10T00:51:24.702Z,0.80
2019-05-10T00:53:54.062Z,0.40
2019-05-10T00:56:23.531Z,0.63
2019-05-10T00:58:53.131Z,0.63
2019-05-10T01:01:22.595Z,0.33
2019-05-10T01:03:52.131Z,0.80
2019-05-10T01:06:21.744Z,0.37
2019-05-10T01:08:51.297Z,0.40
2019-05-10T01:11:20.823Z,0.50
2019-05-10T01:13:51.200Z,0.73
2019-05-10T01:16:20.670Z,0.73
2019-05-10T01:18:50.035Z,0.60
2019-05-10T01:21:19.473Z,0.77
2019-05-10T01:23:49.015Z,0.93
2019-05-10T01:26:18.507Z,0.50
2019-05-10T01:28:48.018Z,0.50
2019-05-10T01:31:17.791Z,0.50
2019-05-10T01:33:47.327Z,0.60
2019-05-10T01:36:16.894Z,0.50
2019-05-10T01:38:46.388Z,0.60
2019-05-10T01:41:15.902Z,0.60
2019-05-10T01:43:45.696Z,0.40
2019-05-10T01:46:15.333Z,0.60
2019-05-10T01:48:44.847Z,0.73
2019-05-10T01:51:14.286Z,0.57
2019-05-10T01:53:43.951Z,0.47
2019-05-10T01:56:13.594Z,0.53
2019-05-10T01:58:43.119Z,0.90
2019-05-10T02:01:12.762Z,0.83
2019-05-10T02:03:42.304Z,0.40
2019-05-10T02:06:11.819Z,0.80
2019-05-10T02:08:41.290Z,0.70
2019-05-10T02:11:10.956Z,0.60
2019-05-10T02:13:40.547Z,0.67
2019-05-10T02:16:09.961Z,0.87
2019-05-10T02:18:39.531Z,0.47
2019-05-10T02:21:09.061Z,0.80
2019-05-10T02:23:38.696Z,0.50
2019-05-10T02:26:09.747Z,0.40
2019-05-10T02:28:39.380Z,0.50
2019-05-10T02:31:09.008Z,0.60
2019-05-10T02:33:38.543Z,0.40
2019-05-10T02:36:08.057Z,0.40
2019-05-10T02:38:37.621Z,0.43
2019-05-10T02:41:07.514Z,0.60
2019-05-10T02:43:37.030Z,0.93
2019-05-10T02:46:06.586Z,0.63
2019-05-10T02:48:36.125Z,0.40
2019-05-10T02:51:05.638Z,0.53
2019-05-10T02:53:35.169Z,0.50
2019-05-10T02:56:04.700Z,0.60
2019-05-10T02:58:34.107Z,0.90
2019-05-10T03:01:04.794Z,0.60
2019-05-10T03:03:34.300Z,0.43
2019-05-10T03:06:04.154Z,0.50
2019-05-10T03:08:49.169Z,0.70
2019-05-10T03:11:19.070Z,0.60
2019-05-10T03:13:50.545Z,0.80
2019-05-10T03:16:20.993Z,0.40
2019-05-10T03:18:52.930Z,0.60
2019-05-10T03:21:23.785Z,0.80
2019-05-10T03:23:53.466Z,0.50
2019-05-10T03:26:23.123Z,0.57
2019-05-10T03:28:52.604Z,0.60
2019-05-10T03:31:22.153Z,0.77
2019-05-10T03:33:56.485Z,0.50
2019-05-10T03:36:22.804Z,0.93
2019-05-10T03:38:53.270Z,1.17
2019-05-10T03:41:22.734Z,0.63
2019-05-10T03:43:52.203Z,1.60
2019-05-10T03:46:21.711Z,1.13
2019-05-10T03:48:51.174Z,0.80
2019-05-10T03:51:20.869Z,0.97
2019-05-10T03:53:50.370Z,0.93
2019-05-10T03:56:19.875Z,0.90
2019-05-10T03:58:49.425Z,1.07
2019-05-10T04:01:18.912Z,0.90
2019-05-10T04:03:48.395Z,0.60
2019-05-10T04:06:17.931Z,0.60
2019-05-10T04:08:47.460Z,0.80
2019-05-10T04:11:16.983Z,0.80
2019-05-10T04:13:46.532Z,0.63
2019-05-10T04:16:16.124Z,0.63
2019-05-10T04:18:45.619Z,0.60
2019-05-10T04:21:15.123Z,0.80
2019-05-10T04:23:44.616Z,0.50
2019-05-10T04:26:14.181Z,0.70
2019-05-10T04:28:43.680Z,0.50
2019-05-10T04:31:13.226Z,0.77
2019-05-10T04:33:42.787Z,0.70
2019-05-10T04:36:13.076Z,0.70
2019-05-10T04:38:42.865Z,0.80
2019-05-10T04:41:12.309Z,1.00
2019-05-10T04:43:41.874Z,1.00
2019-05-10T04:46:11.319Z,0.63
2019-05-10T04:48:40.827Z,0.90
2019-05-10T04:51:10.419Z,0.60
2019-05-10T04:53:39.962Z,1.30
2019-05-10T04:56:10.041Z,1.13
2019-05-10T04:58:39.590Z,0.90
2019-05-10T05:01:09.261Z,0.63
2019-05-10T05:03:38.758Z,0.80
2019-05-10T05:06:08.300Z,1.80
2019-05-10T05:08:37.887Z,0.80
2019-05-10T05:11:07.377Z,0.90
2019-05-10T05:13:36.845Z,1.07
2019-05-10T05:16:06.411Z,0.70
2019-05-10T05:18:35.853Z,0.90
2019-05-10T05:21:05.325Z,1.00
2019-05-10T05:23:34.785Z,0.93
2019-05-10T05:26:04.392Z,0.77
2019-05-10T05:28:33.911Z,1.00
2019-05-10T05:31:03.490Z,0.97
2019-05-10T05:33:33.003Z,0.67
2019-05-10T05:36:02.617Z,0.97
2019-05-10T05:38:32.314Z,1.03
2019-05-10T05:41:01.861Z,0.73
2019-05-10T05:43:31.365Z,0.90
2019-05-10T05:46:00.836Z,0.73
2019-05-10T05:48:39.823Z,0.67
2019-05-10T05:51:01.584Z,0.77
2019-05-10T05:53:35.961Z,0.90
2019-05-10T05:56:03.101Z,1.33
2019-05-10T05:58:37.981Z,1.30
2019-05-10T06:01:04.418Z,0.70
2019-05-10T06:03:34.003Z,0.90
2019-05-10T06:06:15.498Z,0.80
2019-05-10T06:08:34.747Z,0.60
2019-05-10T06:11:04.351Z,0.67
2019-05-10T06:13:33.788Z,0.83
2019-05-10T06:16:06.531Z,1.00
2019-05-10T06:18:34.609Z,2.13
2019-05-10T06:21:04.174Z,0.87
2019-05-10T06:23:35.343Z,0.60
2019-05-10T06:26:06.198Z,0.70
2019-05-10T06:28:57.532Z,0.70
2019-05-10T06:31:07.436Z,0.80
2019-05-10T06:33:39.731Z,1.07
2019-05-10T06:36:08.096Z,0.70
2019-05-10T06:38:37.578Z,1.00
2019-05-10T06:41:10.291Z,0.70
2019-05-10T06:43:38.214Z,1.10
2019-05-10T06:46:07.646Z,0.80
2019-05-10T06:48:37.217Z,0.77
2019-05-10T06:51:09.574Z,0.93
2019-05-10T06:53:42.240Z,1.00
2019-05-10T06:56:09.006Z,0.60
2019-05-10T06:58:38.598Z,0.60
2019-05-10T07:01:07.984Z,0.60
2019-05-10T07:03:37.547Z,0.80
2019-05-10T07:06:07.092Z,0.70
2019-05-10T07:08:44.354Z,0.90
2019-05-10T07:11:07.860Z,0.70
2019-05-10T07:13:40.319Z,0.67
2019-05-10T07:16:08.463Z,0.90
2019-05-10T07:18:37.957Z,0.77
2019-05-10T07:21:08.777Z,0.73
2019-05-10T07:23:39.188Z,0.73
2019-05-10T07:26:09.979Z,0.57
2019-05-10T07:28:39.580Z,0.90
2019-05-10T07:31:09.164Z,0.60
2019-05-10T07:33:40.080Z,0.70
2019-05-10T07:36:14.699Z,0.73
2019-05-10T07:38:41.038Z,0.60
2019-05-10T07:41:10.552Z,0.40
2019-05-10T07:43:40.039Z,0.50
2019-05-10T07:46:09.518Z,0.70
2019-05-10T07:48:41.126Z,0.43
2019-05-10T07:51:10.207Z,0.53
2019-05-10T07:53:39.696Z,1.17
2019-05-10T07:56:09.173Z,0.47
2019-05-10T07:58:43.372Z,0.30
2019-05-10T08:01:10.041Z,0.60
2019-05-10T08:03:44.349Z,1.13
2019-05-10T08:06:10.645Z,0.50
2019-05-10T08:08:40.151Z,0.70
2019-05-10T08:11:09.675Z,0.93
2019-05-10T08:13:39.464Z,0.70
2019-05-10T08:16:11.790Z,0.90
2019-05-10T08:18:42.359Z,0.60
2019-05-10T08:21:21.916Z,0.77
2019-05-10T08:23:43.911Z,0.50
2019-05-10T08:26:19.763Z,0.93
2019-05-10T08:28:44.876Z,0.60
2019-05-10T08:31:14.419Z,0.50
2019-05-10T08:33:52.921Z,1.30
2019-05-10T08:36:15.197Z,0.70
2019-05-10T08:38:50.050Z,1.00
2019-05-10T08:41:18.302Z,1.27
2019-05-10T08:43:47.151Z,1.27
2019-05-10T08:46:19.323Z,1.30
2019-05-10T08:48:53.063Z,1.20
2019-05-10T08:51:19.269Z,0.90
2019-05-10T08:53:55.853Z,1.37
2019-05-10T08:56:21.627Z,1.30
2019-05-10T08:58:53.685Z,1.13
2019-05-10T09:01:29.680Z,1.30
2019-05-10T09:03:59.398Z,1.07
2019-05-10T09:06:24.653Z,1.00
2019-05-10T09:09:01.692Z,1.10
2019-05-10T09:11:25.373Z,1.13
2019-05-10T09:13:57.764Z,1.23
2019-05-10T09:16:29.149Z,1.37
2019-05-10T09:18:57.270Z,1.53
2019-05-10T09:21:26.758Z,1.20
2019-05-10T09:24:01.465Z,1.30
2019-05-10T09:26:27.360Z,1.43
2019-05-10T09:28:57.843Z,0.80
2019-05-10T09:31:27.447Z,0.70
2019-05-10T09:33:56.878Z,0.57
2019-05-10T09:36:31.340Z,0.60
2019-05-10T09:38:57.432Z,0.60
2019-05-10T09:41:27.689Z,0.93
2019-05-10T09:43:58.199Z,1.00
2019-05-10T09:46:27.751Z,0.80
2019-05-10T09:49:05.997Z,0.90
2019-05-10T09:51:30.331Z,0.57
2019-05-10T09:54:00.424Z,0.50
2019-05-10T09:56:32.893Z,0.60
2019-05-10T09:59:01.133Z,0.90
2019-05-10T10:01:30.895Z,0.90
2019-05-10T10:04:02.288Z,0.63
2019-05-10T10:06:31.536Z,0.60
2019-05-10T10:09:01.165Z,1.10
2019-05-10T10:11:30.944Z,1.20
2019-05-10T10:14:02.220Z,2.40
2019-05-10T10:16:31.576Z,1.77
2019-05-10T10:19:01.211Z,1.43
2019-05-10T10:21:35.367Z,1.00
2019-05-10T10:24:12.568Z,1.00
2019-05-10T10:26:33.089Z,1.30
2019-05-10T10:29:02.642Z,1.40
2019-05-10T10:31:33.584Z,1.00
2019-05-10T10:34:03.441Z,1.17
2019-05-10T10:36:33.058Z,1.50
2019-05-10T10:39:02.648Z,0.90
2019-05-10T10:41:32.145Z,0.93
2019-05-10T10:44:01.939Z,1.30
2019-05-10T10:46:34.396Z,1.10
2019-05-10T10:49:02.623Z,1.40
2019-05-10T10:51:34.443Z,1.30
2019-05-10T10:54:03.413Z,1.30
2019-05-10T10:56:32.968Z,1.50
2019-05-10T10:59:02.399Z,1.70
2019-05-10T11:01:46.199Z,2.07
2019-05-10T11:04:07.934Z,1.60
2019-05-10T11:06:34.683Z,1.87
2019-05-10T11:09:07.226Z,1.90
2019-05-10T11:11:44.447Z,2.20
2019-05-10T11:14:08.032Z,2.10
2019-05-10T11:16:41.052Z,2.00
2019-05-10T11:19:15.342Z,2.70
2019-05-10T11:21:41.557Z,1.63
2019-05-10T11:24:18.227Z,1.57
2019-05-10T11:26:44.765Z,1.60
2019-05-10T11:29:23.070Z,1.10
2019-05-10T11:31:49.988Z,1.57
2019-05-10T11:34:16.481Z,1.70
2019-05-10T11:36:48.129Z,1.47
2019-05-10T11:39:26.115Z,1.20
2019-05-10T11:41:52.946Z,1.37
2019-05-10T11:44:22.835Z,0.60
2019-05-10T11:46:52.795Z,0.80
2019-05-10T11:49:22.317Z,0.67
2019-05-10T11:51:54.806Z,0.60
2019-05-10T11:54:23.021Z,1.03
2019-05-10T11:56:57.791Z,0.70
2019-05-10T11:59:27.448Z,0.60
2019-05-10T12:01:59.396Z,0.77
2019-05-10T12:04:36.266Z,0.70
2019-05-10T12:06:57.079Z,0.90
2019-05-10T12:09:26.551Z,1.03
2019-05-10T12:11:57.036Z,0.80
2019-05-10T12:14:26.696Z,0.60
2019-05-10T12:16:56.148Z,0.57
2019-05-10T12:19:25.807Z,0.50
2019-05-10T12:21:56.186Z,0.57
2019-05-10T12:24:45.181Z,0.50
2019-05-10T12:29:28.515Z,0.50
2019-05-10T12:31:58.228Z,0.60
2019-05-10T12:34:27.694Z,0.60
2019-05-10T12:37:03.858Z,0.60
2019-05-10T12:39:30.951Z,0.70
2019-05-10T12:42:01.083Z,1.30
2019-05-10T12:44:33.162Z,0.53
2019-05-10T12:47:01.994Z,0.50
2019-05-10T12:49:31.627Z,0.70
2019-05-10T12:52:03.330Z,0.40
2019-05-10T12:54:32.941Z,0.37
2019-05-10T12:57:02.464Z,0.60
2019-05-10T12:59:34.950Z,1.27
2019-05-10T13:02:09.928Z,0.70
2019-05-10T13:04:40.369Z,0.90
2019-05-10T13:07:05.654Z,0.50
2019-05-10T13:09:40.360Z,0.60
2019-05-10T13:12:06.620Z,0.50
2019-05-10T13:14:40.404Z,0.40
2019-05-10T13:17:09.909Z,0.73
2019-05-10T13:19:38.438Z,0.40
2019-05-10T13:22:07.974Z,0.40
2019-05-10T13:24:37.599Z,0.40
2019-05-10T13:27:07.119Z,0.30
2019-05-10T13:29:40.697Z,0.50
2019-05-10T13:32:08.023Z,0.30
2019-05-10T13:34:37.707Z,0.40
2019-05-10T13:37:13.689Z,0.60
2019-05-10T13:39:38.653Z,0.70
2019-05-10T13:42:09.709Z,0.40
2019-05-10T13:44:42.838Z,0.77
2019-05-10T13:47:10.535Z,0.50
2019-05-10T13:49:39.976Z,0.40
2019-05-10T13:52:09.406Z,0.30
2019-05-10T13:54:38.819Z,0.50
2019-05-10T13:57:08.180Z,0.83
2019-05-10T13:59:37.696Z,0.50
2019-05-10T14:02:07.246Z,0.57
2019-05-10T14:04:38.701Z,0.33
2019-05-10T14:07:07.889Z,0.30
2019-05-10T14:09:37.346Z,0.30
2019-05-10T14:12:06.818Z,0.30
2019-05-10T14:14:36.292Z,0.50
2019-05-10T14:17:05.990Z,0.43
2019-05-10T14:19:36.339Z,0.60
2019-05-10T14:22:05.980Z,0.37
2019-05-10T14:24:35.495Z,0.50
2019-05-10T14:27:04.938Z,0.50
2019-05-10T14:29:36.768Z,0.40
2019-05-10T14:32:05.782Z,0.53
2019-05-10T14:34:37.743Z,0.33
2019-05-10T14:37:08.427Z,0.60
2019-05-10T14:39:38.018Z,0.40
2019-05-10T14:42:09.443Z,0.73
2019-05-10T14:44:39.161Z,0.40
2019-05-10T14:47:10.975Z,0.70
2019-05-10T14:49:42.227Z,0.30
2019-05-10T14:52:11.061Z,0.47
2019-05-10T14:54:43.557Z,0.40
2019-05-10T14:57:11.898Z,0.50
2019-05-10T14:59:41.364Z,0.60
2019-05-10T15:02:16.985Z,0.43
2019-05-10T15:04:45.031Z,0.50
2019-05-10T15:07:14.469Z,0.37
2019-05-10T15:09:44.886Z,0.40
2019-05-10T15:12:16.339Z,0.47
2019-05-10T15:14:48.022Z,0.60
2019-05-10T15:17:20.038Z,0.50
2019-05-10T15:19:57.974Z,0.47
2019-05-10T15:22:23.096Z,0.40
2019-05-10T15:24:51.471Z,0.60
2019-05-10T15:27:21.691Z,0.60
2019-05-10T15:29:52.526Z,0.50
2019-05-10T15:32:22.163Z,0.60
2019-05-10T15:35:05.505Z,0.70
2019-05-10T15:37:23.063Z,0.73
2019-05-10T15:39:52.728Z,0.50
2019-05-10T15:42:22.492Z,0.77
2019-05-10T15:44:52.192Z,0.47
2019-05-10T15:47:22.391Z,0.80
2019-05-10T15:49:54.529Z,0.80
2019-05-10T15:52:24.089Z,2.00
2019-05-10T15:54:53.597Z,2.00
2019-05-10T15:57:23.457Z,0.80
2019-05-10T15:59:56.442Z,1.00
2019-05-10T16:02:24.489Z,0.70
2019-05-10T16:04:54.168Z,0.43
2019-05-10T16:07:27.106Z,1.00
2019-05-10T16:09:56.730Z,0.90
2019-05-10T16:12:26.321Z,0.87
2019-05-10T16:14:56.169Z,0.90
2019-05-10T16:17:25.926Z,0.63
2019-05-10T16:19:59.782Z,0.90
2019-05-10T16:22:30.422Z,0.93
2019-05-10T16:25:02.480Z,0.80
2019-05-10T16:27:34.115Z,0.50
2019-05-10T16:30:01.084Z,0.50
2019-05-10T16:32:34.514Z,0.60
2019-05-10T16:35:05.602Z,0.50
2019-05-10T16:37:32.964Z,0.50
2019-05-10T16:40:02.407Z,0.40
2019-05-10T16:42:34.414Z,0.50
2019-05-10T16:45:03.312Z,0.43
2019-05-10T16:47:32.750Z,0.40
2019-05-10T16:50:02.207Z,0.50
2019-05-10T16:52:31.805Z,0.53
2019-05-10T16:55:03.481Z,0.50
2019-05-10T16:57:37.515Z,0.40
2019-05-10T17:00:08.312Z,0.40
2019-05-10T17:02:42.137Z,1.83
2019-05-10T17:05:09.778Z,13.30
2019-05-10T17:07:39.995Z,4.53
2019-05-10T17:10:09.431Z,13.17
2019-05-10T17:12:38.858Z,2.60
2019-05-10T17:15:08.466Z,2.33
2019-05-10T17:17:39.271Z,1.23
2019-05-10T17:20:13.885Z,4.27
2019-05-10T17:22:40.069Z,0.90
2019-05-10T17:25:09.573Z,0.70
2019-05-10T17:27:39.067Z,0.87
2019-05-10T17:30:08.618Z,1.67
2019-05-10T17:32:38.199Z,1.13
2019-05-10T17:35:07.891Z,2.00
2019-05-10T17:37:37.620Z,0.87
2019-05-10T17:40:10.156Z,1.27
2019-05-10T17:42:41.228Z,0.73
2019-05-10T17:45:09.971Z,1.30
2019-05-10T17:47:39.459Z,1.20
2019-05-10T17:50:09.161Z,1.13
2019-05-10T17:52:38.722Z,1.60
2019-05-10T17:55:10.833Z,1.87
2019-05-10T17:57:39.497Z,2.00
2019-05-10T18:00:09.115Z,0.93
2019-05-10T18:02:38.639Z,1.30
2019-05-10T18:05:08.468Z,1.10
2019-05-10T18:07:38.097Z,1.10
2019-05-10T18:10:08.121Z,0.80
2019-05-10T18:12:37.640Z,1.00
2019-05-10T18:15:07.653Z,1.10
2019-05-10T18:17:37.119Z,1.30
2019-05-10T18:20:06.736Z,1.70
2019-05-10T18:22:43.077Z,1.40
2019-05-10T18:25:07.675Z,1.57
2019-05-10T18:27:38.740Z,1.30
2019-05-10T18:30:08.370Z,1.97
2019-05-10T18:32:37.886Z,1.67
2019-05-10T18:35:14.216Z,1.80
2019-05-10T18:37:38.662Z,2.00
2019-05-10T18:40:08.144Z,2.77
2019-05-10T18:42:37.962Z,2.10
2019-05-10T18:45:07.461Z,1.93
2019-05-10T18:47:37.029Z,1.77
2019-05-10T18:50:06.809Z,1.90
2019-05-10T18:52:36.418Z,2.67
2019-05-10T18:55:05.972Z,2.50
2019-05-10T18:57:35.531Z,1.80
2019-05-10T19:00:06.200Z,2.23
2019-05-10T19:02:35.660Z,3.93
2019-05-10T19:05:07.731Z,5.63
2019-05-10T19:07:37.213Z,10.27
2019-05-10T19:10:07.285Z,7.63
2019-05-10T19:12:37.233Z,7.93
2019-05-10T19:15:15.279Z,5.43
2019-05-10T19:17:45.882Z,24.23
2019-05-10T19:20:16.110Z,10.97
2019-05-10T19:22:43.910Z,7.33
2019-05-10T19:25:14.510Z,9.20
2019-05-10T19:27:49.787Z,10.73
2019-05-10T19:30:20.066Z,10.33
2019-05-10T19:32:51.007Z,5.57
2019-05-10T19:35:19.606Z,3.63
2019-05-10T19:37:49.109Z,5.10
2019-05-10T19:40:18.666Z,4.50
2019-05-10T19:42:49.546Z,3.20
2019-05-10T19:45:21.076Z,2.70
2019-05-10T19:47:55.807Z,2.93
2019-05-10T19:50:24.149Z,4.20
2019-05-10T19:52:52.838Z,3.90
2019-05-10T19:55:22.394Z,3.47
2019-05-10T19:57:54.770Z,5.10
2019-05-10T20:00:23.067Z,3.90
2019-05-10T20:02:52.590Z,4.30
2019-05-10T20:05:22.073Z,4.00
2019-05-10T20:07:51.583Z,4.10
2019-05-10T20:10:21.063Z,3.70
2019-05-10T20:12:50.483Z,3.60
2019-05-10T20:15:19.988Z,3.90
2019-05-10T20:17:49.514Z,4.00
2019-05-10T20:20:19.469Z,3.70
2019-05-10T20:22:48.939Z,3.33
2019-05-10T20:25:18.537Z,4.13
2019-05-10T20:27:48.070Z,5.60
2019-05-10T20:30:17.547Z,3.53
2019-05-10T20:32:47.204Z,3.60
2019-05-10T20:35:16.953Z,4.60
2019-05-10T20:38:00.675Z,4.00
2019-05-10T20:40:17.722Z,4.50
2019-05-10T20:42:47.261Z,3.63
2019-05-10T20:45:16.845Z,3.57
2019-05-10T20:47:46.325Z,3.00
2019-05-10T20:50:15.939Z,3.50
2019-05-10T20:52:45.571Z,3.50
2019-05-10T20:55:15.263Z,4.67
2019-05-10T20:57:44.733Z,3.93
2019-05-10T21:00:14.303Z,4.10
2019-05-10T21:02:43.843Z,3.20
2019-05-10T21:05:13.345Z,2.70
2019-05-10T21:07:42.957Z,3.53
2019-05-10T21:10:12.661Z,3.23
2019-05-10T21:12:42.261Z,3.13
2019-05-10T21:15:11.796Z,2.60
2019-05-10T21:17:41.453Z,3.20
2019-05-10T21:20:11.087Z,2.10
2019-05-10T21:22:40.617Z,1.70
2019-05-10T21:25:11.721Z,2.30
2019-05-10T21:27:41.287Z,2.30
2019-05-10T21:30:10.834Z,2.27
2019-05-10T21:32:40.371Z,2.60
2019-05-10T21:35:09.978Z,2.20
2019-05-10T21:37:39.449Z,2.17
2019-05-10T21:40:08.959Z,2.23
2019-05-10T21:42:38.511Z,2.37
2019-05-10T21:45:07.970Z,2.63
2019-05-10T21:47:50.689Z,2.93
2019-05-10T21:50:09.217Z,2.73
2019-05-10T21:52:38.786Z,2.13
2019-05-10T21:55:08.406Z,2.70
2019-05-10T21:57:38.030Z,3.20
2019-05-10T22:00:08.458Z,1.83
2019-05-10T22:02:37.991Z,2.50
2019-05-10T22:05:07.486Z,2.40
2019-05-10T22:07:36.956Z,2.23
2019-05-10T22:10:06.885Z,2.23
2019-05-10T22:12:36.415Z,1.97
2019-05-10T22:15:07.124Z,1.80
2019-05-10T22:17:36.543Z,2.57
2019-05-10T22:20:06.758Z,2.03
2019-05-10T22:22:36.265Z,1.97
2019-05-10T22:25:08.409Z,2.30
2019-05-10T22:27:37.967Z,2.43
2019-05-10T22:30:07.770Z,2.10
2019-05-10T22:32:37.404Z,1.53
2019-05-10T22:35:06.968Z,1.60
2019-05-10T22:37:36.498Z,1.87
2019-05-10T22:40:05.940Z,1.67
2019-05-10T22:42:35.439Z,1.87
2019-05-10T22:45:05.852Z,1.67
2019-05-10T22:47:35.286Z,1.60
2019-05-10T22:50:07.714Z,1.90
2019-05-10T22:52:56.694Z,1.70
2019-05-10T22:55:26.245Z,1.60
2019-05-10T22:57:56.694Z,2.00
2019-05-10T23:00:26.122Z,1.90
2019-05-10T23:02:55.553Z,2.13
2019-05-10T23:05:25.026Z,2.00
2019-05-10T23:07:54.637Z,2.03
2019-05-10T23:10:24.071Z,1.77
2019-05-10T23:12:53.894Z,2.10
2019-05-10T23:15:23.418Z,1.97
2019-05-10T23:17:52.946Z,1.93
2019-05-10T23:20:22.544Z,1.70
2019-05-10T23:22:51.972Z,1.70
2019-05-10T23:25:21.515Z,1.70
2019-05-10T23:27:51.171Z,2.20
2019-05-10T23:30:20.685Z,1.87
2019-05-10T23:32:50.158Z,1.70
2019-05-10T23:35:19.630Z,1.70
2019-05-10T23:37:49.241Z,1.80
2019-05-10T23:40:18.686Z,1.80
2019-05-10T23:42:48.359Z,1.80
2019-05-10T23:45:17.791Z,1.80
2019-05-10T23:47:47.302Z,1.90
2019-05-10T23:50:16.874Z,1.97
2019-05-10T23:52:46.312Z,2.30
2019-05-10T23:55:15.810Z,2.20
2019-05-10T23:57:45.314Z,1.60
